sensor_id;sensor_type;location;lat;lon;timestamp;P1;durP1;ratioP1;P2;durP2;ratioP2
74920;SDS011;63483;47.384;8.860;2024-02-21T00:00:54;5.93;;;1.13;;
74920;SDS011;63483;47.384;8.860;2024-02-21T00:03:20;2.60;;;0.90;;
74920;SDS011;63483;47.384;8.860;2024-02-21T00:05:45;3.17;;;1.03;;
74920;SDS011;63483;47.384;8.860;2024-02-21T00:08:10;1.90;;;0.60;;
74920;SDS011;63483;47.384;8.860;2024-02-21T00:10:36;1.53;;;0.80;;
74920;SDS011;63483;47.384;8.860;2024-02-21T00:13:01;3.60;;;0.93;;
74920;SDS011;63483;47.384;8.860;2024-02-21T00:15:27;1.42;;;0.70;;
74920;SDS011;63483;47.384;8.860;2024-02-21T00:17:52;2.23;;;0.90;;
74920;SDS011;63483;47.384;8.860;2024-02-21T00:20:18;2.58;;;0.88;;
74920;SDS011;63483;47.384;8.860;2024-02-21T00:22:44;3.17;;;0.63;;
74920;SDS011;63483;47.384;8.860;2024-02-21T00:25:09;3.10;;;0.97;;
74920;SDS011;63483;47.384;8.860;2024-02-21T00:27:35;2.95;;;0.80;;
74920;SDS011;63483;47.384;8.860;2024-02-21T00:30:00;2.87;;;0.60;;
74920;SDS011;63483;47.384;8.860;2024-02-21T00:32:25;3.87;;;1.17;;
74920;SDS011;63483;47.384;8.860;2024-02-21T00:34:51;2.23;;;0.53;;
74920;SDS011;63483;47.384;8.860;2024-02-21T00:37:16;2.80;;;1.10;;
74920;SDS011;63483;47.384;8.860;2024-02-21T00:39:41;1.93;;;0.77;;
74920;SDS011;63483;47.384;8.860;2024-02-21T00:42:07;3.55;;;1.00;;
74920;SDS011;63483;47.384;8.860;2024-02-21T00:44:32;1.80;;;0.70;;
74920;SDS011;63483;47.384;8.860;2024-02-21T00:46:58;2.60;;;1.03;;
74920;SDS011;63483;47.384;8.860;2024-02-21T00:49:23;2.57;;;1.00;;
74920;SDS011;63483;47.384;8.860;2024-02-21T00:51:48;1.83;;;0.77;;
74920;SDS011;63483;47.384;8.860;2024-02-21T00:54:14;3.08;;;0.70;;
74920;SDS011;63483;47.384;8.860;2024-02-21T00:56:39;3.17;;;1.10;;
74920;SDS011;63483;47.384;8.860;2024-02-21T00:59:05;2.10;;;0.80;;
74920;SDS011;63483;47.384;8.860;2024-02-21T01:01:30;1.97;;;1.00;;
74920;SDS011;63483;47.384;8.860;2024-02-21T01:03:55;2.73;;;0.63;;
74920;SDS011;63483;47.384;8.860;2024-02-21T01:06:21;2.60;;;0.80;;
74920;SDS011;63483;47.384;8.860;2024-02-21T01:08:46;3.10;;;0.70;;
74920;SDS011;63483;47.384;8.860;2024-02-21T01:11:15;2.35;;;0.63;;
74920;SDS011;63483;47.384;8.860;2024-02-21T01:13:41;2.60;;;0.77;;
74920;SDS011;63483;47.384;8.860;2024-02-21T01:16:06;3.50;;;0.87;;
74920;SDS011;63483;47.384;8.860;2024-02-21T01:18:32;2.20;;;0.83;;
74920;SDS011;63483;47.384;8.860;2024-02-21T01:20:59;2.95;;;1.13;;
74920;SDS011;63483;47.384;8.860;2024-02-21T01:23:24;2.73;;;1.40;;
74920;SDS011;63483;47.384;8.860;2024-02-21T01:25:49;1.63;;;0.67;;
74920;SDS011;63483;47.384;8.860;2024-02-21T01:28:15;2.15;;;0.77;;
74920;SDS011;63483;47.384;8.860;2024-02-21T01:30:40;1.63;;;0.60;;
74920;SDS011;63483;47.384;8.860;2024-02-21T01:33:05;1.40;;;0.53;;
74920;SDS011;63483;47.384;8.860;2024-02-21T01:35:31;2.60;;;0.70;;
74920;SDS011;63483;47.384;8.860;2024-02-21T01:37:56;3.40;;;0.63;;
74920;SDS011;63483;47.384;8.860;2024-02-21T01:40:21;1.90;;;0.73;;
74920;SDS011;63483;47.384;8.860;2024-02-21T01:42:47;3.20;;;0.60;;
74920;SDS011;63483;47.384;8.860;2024-02-21T01:45:13;1.85;;;0.60;;
74920;SDS011;63483;47.384;8.860;2024-02-21T01:47:38;1.47;;;0.63;;
74920;SDS011;63483;47.384;8.860;2024-02-21T01:50:04;1.70;;;0.68;;
74920;SDS011;63483;47.384;8.860;2024-02-21T01:52:30;3.23;;;0.60;;
74920;SDS011;63483;47.384;8.860;2024-02-21T01:54:56;1.95;;;0.70;;
74920;SDS011;63483;47.384;8.860;2024-02-21T01:57:22;2.35;;;0.70;;
74920;SDS011;63483;47.384;8.860;2024-02-21T01:59:48;1.70;;;0.90;;
74920;SDS011;63483;47.384;8.860;2024-02-21T02:02:14;1.45;;;0.47;;
74920;SDS011;63483;47.384;8.860;2024-02-21T02:04:41;1.63;;;0.43;;
74920;SDS011;63483;47.384;8.860;2024-02-21T02:07:07;2.15;;;0.50;;
74920;SDS011;63483;47.384;8.860;2024-02-21T02:09:33;2.17;;;0.60;;
74920;SDS011;63483;47.384;8.860;2024-02-21T02:11:58;1.60;;;0.63;;
74920;SDS011;63483;47.384;8.860;2024-02-21T02:14:25;2.00;;;1.00;;
74920;SDS011;63483;47.384;8.860;2024-02-21T02:16:50;1.40;;;0.60;;
74920;SDS011;63483;47.384;8.860;2024-02-21T02:19:15;2.83;;;0.70;;
74920;SDS011;63483;47.384;8.860;2024-02-21T02:21:42;2.60;;;0.87;;
74920;SDS011;63483;47.384;8.860;2024-02-21T02:24:18;2.58;;;0.85;;
74920;SDS011;63483;47.384;8.860;2024-02-21T02:26:44;2.28;;;0.80;;
74920;SDS011;63483;47.384;8.860;2024-02-21T02:29:10;2.83;;;0.80;;
74920;SDS011;63483;47.384;8.860;2024-02-21T02:31:36;2.63;;;0.50;;
74920;SDS011;63483;47.384;8.860;2024-02-21T02:34:02;14.20;;;0.75;;
74920;SDS011;63483;47.384;8.860;2024-02-21T02:36:28;4.13;;;0.80;;
74920;SDS011;63483;47.384;8.860;2024-02-21T02:38:53;3.50;;;0.97;;
74920;SDS011;63483;47.384;8.860;2024-02-21T02:41:18;3.93;;;0.83;;
74920;SDS011;63483;47.384;8.860;2024-02-21T02:43:43;2.85;;;0.77;;
74920;SDS011;63483;47.384;8.860;2024-02-21T02:46:09;3.67;;;0.75;;
74920;SDS011;63483;47.384;8.860;2024-02-21T02:48:34;2.00;;;0.60;;
74920;SDS011;63483;47.384;8.860;2024-02-21T02:50:59;3.70;;;1.20;;
74920;SDS011;63483;47.384;8.860;2024-02-21T02:53:25;2.07;;;0.70;;
74920;SDS011;63483;47.384;8.860;2024-02-21T02:55:50;2.43;;;0.63;;
74920;SDS011;63483;47.384;8.860;2024-02-21T02:58:15;1.60;;;0.63;;
74920;SDS011;63483;47.384;8.860;2024-02-21T03:00:41;2.17;;;0.60;;
74920;SDS011;63483;47.384;8.860;2024-02-21T03:03:06;2.90;;;0.70;;
74920;SDS011;63483;47.384;8.860;2024-02-21T03:05:33;2.23;;;0.40;;
74920;SDS011;63483;47.384;8.860;2024-02-21T03:07:59;1.38;;;0.73;;
74920;SDS011;63483;47.384;8.860;2024-02-21T03:10:24;2.65;;;0.88;;
74920;SDS011;63483;47.384;8.860;2024-02-21T03:12:49;1.60;;;0.63;;
74920;SDS011;63483;47.384;8.860;2024-02-21T03:15:17;1.52;;;0.52;;
74920;SDS011;63483;47.384;8.860;2024-02-21T03:17:43;1.60;;;0.50;;
74920;SDS011;63483;47.384;8.860;2024-02-21T03:20:08;1.40;;;0.63;;
74920;SDS011;63483;47.384;8.860;2024-02-21T03:22:35;3.92;;;0.52;;
74920;SDS011;63483;47.384;8.860;2024-02-21T03:25:00;4.20;;;0.57;;
74920;SDS011;63483;47.384;8.860;2024-02-21T03:27:26;3.00;;;0.70;;
74920;SDS011;63483;47.384;8.860;2024-02-21T03:29:51;2.13;;;0.50;;
74920;SDS011;63483;47.384;8.860;2024-02-21T03:32:16;1.58;;;0.95;;
74920;SDS011;63483;47.384;8.860;2024-02-21T03:34:42;2.13;;;0.73;;
74920;SDS011;63483;47.384;8.860;2024-02-21T03:37:07;2.50;;;0.70;;
74920;SDS011;63483;47.384;8.860;2024-02-21T03:39:32;2.10;;;0.87;;
74920;SDS011;63483;47.384;8.860;2024-02-21T03:41:58;1.73;;;0.40;;
74920;SDS011;63483;47.384;8.860;2024-02-21T03:44:29;1.60;;;0.60;;
74920;SDS011;63483;47.384;8.860;2024-02-21T03:46:55;2.03;;;1.02;;
74920;SDS011;63483;47.384;8.860;2024-02-21T03:49:21;3.40;;;0.80;;
74920;SDS011;63483;47.384;8.860;2024-02-21T03:51:46;1.60;;;0.87;;
74920;SDS011;63483;47.384;8.860;2024-02-21T03:54:11;2.13;;;0.53;;
74920;SDS011;63483;47.384;8.860;2024-02-21T03:56:37;1.48;;;0.38;;
74920;SDS011;63483;47.384;8.860;2024-02-21T03:59:04;1.93;;;0.70;;
74920;SDS011;63483;47.384;8.860;2024-02-21T04:01:30;1.40;;;0.60;;
74920;SDS011;63483;47.384;8.860;2024-02-21T04:03:55;1.40;;;0.50;;
74920;SDS011;63483;47.384;8.860;2024-02-21T04:06:20;1.30;;;0.50;;
74920;SDS011;63483;47.384;8.860;2024-02-21T04:08:45;2.73;;;0.77;;
74920;SDS011;63483;47.384;8.860;2024-02-21T04:11:11;1.60;;;0.77;;
74920;SDS011;63483;47.384;8.860;2024-02-21T04:13:36;1.77;;;0.50;;
74920;SDS011;63483;47.384;8.860;2024-02-21T04:16:01;1.57;;;0.53;;
74920;SDS011;63483;47.384;8.860;2024-02-21T04:18:28;2.33;;;0.63;;
74920;SDS011;63483;47.384;8.860;2024-02-21T04:20:53;1.90;;;0.60;;
74920;SDS011;63483;47.384;8.860;2024-02-21T04:23:18;1.90;;;0.73;;
74920;SDS011;63483;47.384;8.860;2024-02-21T04:25:44;0.97;;;0.30;;
74920;SDS011;63483;47.384;8.860;2024-02-21T04:28:09;2.50;;;0.73;;
74920;SDS011;63483;47.384;8.860;2024-02-21T04:30:34;3.67;;;0.80;;
74920;SDS011;63483;47.384;8.860;2024-02-21T04:33:00;2.10;;;0.50;;
74920;SDS011;63483;47.384;8.860;2024-02-21T04:35:25;1.40;;;0.80;;
74920;SDS011;63483;47.384;8.860;2024-02-21T04:37:51;1.20;;;0.60;;
74920;SDS011;63483;47.384;8.860;2024-02-21T04:40:16;1.93;;;0.50;;
74920;SDS011;63483;47.384;8.860;2024-02-21T04:42:42;1.67;;;0.57;;
74920;SDS011;63483;47.384;8.860;2024-02-21T04:45:07;1.38;;;0.30;;
74920;SDS011;63483;47.384;8.860;2024-02-21T04:47:33;1.87;;;0.70;;
74920;SDS011;63483;47.384;8.860;2024-02-21T04:49:58;1.10;;;0.55;;
74920;SDS011;63483;47.384;8.860;2024-02-21T04:52:23;3.13;;;0.73;;
74920;SDS011;63483;47.384;8.860;2024-02-21T04:54:49;3.13;;;0.97;;
74920;SDS011;63483;47.384;8.860;2024-02-21T04:57:15;2.40;;;0.87;;
74920;SDS011;63483;47.384;8.860;2024-02-21T04:59:43;1.95;;;0.75;;
74920;SDS011;63483;47.384;8.860;2024-02-21T05:02:09;1.85;;;0.73;;
74920;SDS011;63483;47.384;8.860;2024-02-21T05:04:34;1.77;;;0.93;;
74920;SDS011;63483;47.384;8.860;2024-02-21T05:07:00;1.87;;;0.80;;
74920;SDS011;63483;47.384;8.860;2024-02-21T05:09:26;1.80;;;1.02;;
74920;SDS011;63483;47.384;8.860;2024-02-21T05:11:51;2.53;;;0.87;;
74920;SDS011;63483;47.384;8.860;2024-02-21T05:14:16;1.73;;;0.67;;
74920;SDS011;63483;47.384;8.860;2024-02-21T05:16:42;1.73;;;0.57;;
74920;SDS011;63483;47.384;8.860;2024-02-21T05:19:07;1.43;;;0.63;;
74920;SDS011;63483;47.384;8.860;2024-02-21T05:21:32;1.20;;;0.87;;
74920;SDS011;63483;47.384;8.860;2024-02-21T05:23:58;2.67;;;1.00;;
74920;SDS011;63483;47.384;8.860;2024-02-21T05:26:25;3.00;;;1.00;;
74920;SDS011;63483;47.384;8.860;2024-02-21T05:28:51;2.28;;;1.00;;
74920;SDS011;63483;47.384;8.860;2024-02-21T05:31:19;2.47;;;0.80;;
74920;SDS011;63483;47.384;8.860;2024-02-21T05:33:46;3.22;;;1.52;;
74920;SDS011;63483;47.384;8.860;2024-02-21T05:36:12;3.53;;;1.98;;
74920;SDS011;63483;47.384;8.860;2024-02-21T05:38:38;2.70;;;0.77;;
74920;SDS011;63483;47.384;8.860;2024-02-21T05:41:04;1.60;;;0.60;;
74920;SDS011;63483;47.384;8.860;2024-02-21T05:43:29;2.50;;;1.00;;
74920;SDS011;63483;47.384;8.860;2024-02-21T05:45:55;2.17;;;0.97;;
74920;SDS011;63483;47.384;8.860;2024-02-21T05:48:21;2.20;;;0.83;;
74920;SDS011;63483;47.384;8.860;2024-02-21T05:50:47;1.10;;;0.50;;
74920;SDS011;63483;47.384;8.860;2024-02-21T05:53:12;1.90;;;0.70;;
74920;SDS011;63483;47.384;8.860;2024-02-21T05:55:38;2.30;;;0.80;;
74920;SDS011;63483;47.384;8.860;2024-02-21T05:58:03;2.87;;;0.70;;
74920;SDS011;63483;47.384;8.860;2024-02-21T06:00:29;1.85;;;0.60;;
74920;SDS011;63483;47.384;8.860;2024-02-21T06:02:54;2.33;;;1.10;;
74920;SDS011;63483;47.384;8.860;2024-02-21T06:05:20;1.63;;;0.80;;
74920;SDS011;63483;47.384;8.860;2024-02-21T06:07:45;3.67;;;0.73;;
74920;SDS011;63483;47.384;8.860;2024-02-21T06:10:10;2.13;;;1.10;;
74920;SDS011;63483;47.384;8.860;2024-02-21T06:12:36;2.70;;;1.37;;
74920;SDS011;63483;47.384;8.860;2024-02-21T06:15:01;2.63;;;1.10;;
74920;SDS011;63483;47.384;8.860;2024-02-21T06:17:26;2.70;;;1.13;;
74920;SDS011;63483;47.384;8.860;2024-02-21T06:19:52;1.97;;;1.17;;
74920;SDS011;63483;47.384;8.860;2024-02-21T06:22:17;1.50;;;0.87;;
74920;SDS011;63483;47.384;8.860;2024-02-21T06:24:43;1.30;;;0.80;;
74920;SDS011;63483;47.384;8.860;2024-02-21T06:27:08;1.48;;;0.75;;
74920;SDS011;63483;47.384;8.860;2024-02-21T06:29:34;2.47;;;1.00;;
74920;SDS011;63483;47.384;8.860;2024-02-21T06:32:00;3.43;;;0.87;;
74920;SDS011;63483;47.384;8.860;2024-02-21T06:34:25;1.65;;;0.60;;
74920;SDS011;63483;47.384;8.860;2024-02-21T06:36:51;4.00;;;0.70;;
74920;SDS011;63483;47.384;8.860;2024-02-21T06:39:16;4.90;;;1.05;;
74920;SDS011;63483;47.384;8.860;2024-02-21T06:41:42;1.35;;;0.80;;
74920;SDS011;63483;47.384;8.860;2024-02-21T06:44:07;2.47;;;1.10;;
74920;SDS011;63483;47.384;8.860;2024-02-21T06:46:32;2.47;;;0.90;;
74920;SDS011;63483;47.384;8.860;2024-02-21T06:48:58;1.77;;;0.68;;
74920;SDS011;63483;47.384;8.860;2024-02-21T06:51:25;3.73;;;0.60;;
74920;SDS011;63483;47.384;8.860;2024-02-21T06:53:50;2.08;;;0.73;;
74920;SDS011;63483;47.384;8.860;2024-02-21T06:56:16;2.77;;;0.73;;
74920;SDS011;63483;47.384;8.860;2024-02-21T06:58:41;1.50;;;0.60;;
74920;SDS011;63483;47.384;8.860;2024-02-21T07:01:06;2.33;;;0.70;;
74920;SDS011;63483;47.384;8.860;2024-02-21T07:03:32;2.20;;;0.90;;
74920;SDS011;63483;47.384;8.860;2024-02-21T07:05:58;2.67;;;1.43;;
74920;SDS011;63483;47.384;8.860;2024-02-21T07:08:23;2.20;;;1.03;;
74920;SDS011;63483;47.384;8.860;2024-02-21T07:10:49;2.30;;;1.30;;
74920;SDS011;63483;47.384;8.860;2024-02-21T07:13:14;5.73;;;1.13;;
74920;SDS011;63483;47.384;8.860;2024-02-21T07:15:40;2.00;;;0.75;;
74920;SDS011;63483;47.384;8.860;2024-02-21T07:18:06;3.45;;;1.45;;
74920;SDS011;63483;47.384;8.860;2024-02-21T07:20:31;2.10;;;0.87;;
74920;SDS011;63483;47.384;8.860;2024-02-21T07:22:58;3.85;;;1.08;;
74920;SDS011;63483;47.384;8.860;2024-02-21T07:25:24;2.83;;;0.77;;
74920;SDS011;63483;47.384;8.860;2024-02-21T07:27:49;3.07;;;1.17;;
74920;SDS011;63483;47.384;8.860;2024-02-21T07:30:14;1.60;;;0.80;;
74920;SDS011;63483;47.384;8.860;2024-02-21T07:32:40;2.13;;;1.20;;
74920;SDS011;63483;47.384;8.860;2024-02-21T07:35:05;1.80;;;1.13;;
74920;SDS011;63483;47.384;8.860;2024-02-21T07:37:35;2.90;;;1.00;;
74920;SDS011;63483;47.384;8.860;2024-02-21T07:40:00;11.23;;;1.88;;
74920;SDS011;63483;47.384;8.860;2024-02-21T07:42:26;8.33;;;1.80;;
74920;SDS011;63483;47.384;8.860;2024-02-21T07:44:51;3.33;;;1.27;;
74920;SDS011;63483;47.384;8.860;2024-02-21T07:47:16;3.57;;;1.10;;
74920;SDS011;63483;47.384;8.860;2024-02-21T07:49:44;2.97;;;1.23;;
74920;SDS011;63483;47.384;8.860;2024-02-21T07:52:10;2.53;;;1.40;;
74920;SDS011;63483;47.384;8.860;2024-02-21T07:54:36;3.53;;;1.37;;
74920;SDS011;63483;47.384;8.860;2024-02-21T07:57:01;3.53;;;1.60;;
74920;SDS011;63483;47.384;8.860;2024-02-21T07:59:27;2.60;;;1.20;;
74920;SDS011;63483;47.384;8.860;2024-02-21T08:01:55;2.40;;;1.23;;
74920;SDS011;63483;47.384;8.860;2024-02-21T08:04:21;4.07;;;1.40;;
74920;SDS011;63483;47.384;8.860;2024-02-21T08:06:50;4.63;;;1.87;;
74920;SDS011;63483;47.384;8.860;2024-02-21T08:09:18;4.55;;;1.58;;
74920;SDS011;63483;47.384;8.860;2024-02-21T08:11:43;2.97;;;1.10;;
74920;SDS011;63483;47.384;8.860;2024-02-21T08:14:09;3.30;;;0.90;;
74920;SDS011;63483;47.384;8.860;2024-02-21T08:16:34;7.20;;;2.43;;
74920;SDS011;63483;47.384;8.860;2024-02-21T08:18:59;4.27;;;1.93;;
74920;SDS011;63483;47.384;8.860;2024-02-21T08:21:26;3.88;;;1.75;;
74920;SDS011;63483;47.384;8.860;2024-02-21T08:23:52;4.90;;;1.50;;
74920;SDS011;63483;47.384;8.860;2024-02-21T08:26:19;5.25;;;1.90;;
74920;SDS011;63483;47.384;8.860;2024-02-21T08:28:44;3.63;;;1.63;;
74920;SDS011;63483;47.384;8.860;2024-02-21T08:31:09;4.53;;;1.97;;
74920;SDS011;63483;47.384;8.860;2024-02-21T08:33:35;3.80;;;1.77;;
74920;SDS011;63483;47.384;8.860;2024-02-21T08:36:00;2.73;;;1.47;;
74920;SDS011;63483;47.384;8.860;2024-02-21T08:38:25;3.30;;;1.47;;
74920;SDS011;63483;47.384;8.860;2024-02-21T08:40:51;2.17;;;1.00;;
74920;SDS011;63483;47.384;8.860;2024-02-21T08:43:16;3.47;;;1.20;;
74920;SDS011;63483;47.384;8.860;2024-02-21T08:45:41;2.27;;;1.07;;
74920;SDS011;63483;47.384;8.860;2024-02-21T08:48:06;2.43;;;0.90;;
74920;SDS011;63483;47.384;8.860;2024-02-21T08:50:33;3.15;;;0.98;;
74920;SDS011;63483;47.384;8.860;2024-02-21T08:52:58;2.03;;;0.80;;
74920;SDS011;63483;47.384;8.860;2024-02-21T08:55:23;1.60;;;0.60;;
74920;SDS011;63483;47.384;8.860;2024-02-21T08:57:49;2.23;;;1.00;;
74920;SDS011;63483;47.384;8.860;2024-02-21T09:00:15;1.73;;;0.77;;
74920;SDS011;63483;47.384;8.860;2024-02-21T09:02:41;2.60;;;0.70;;
74920;SDS011;63483;47.384;8.860;2024-02-21T09:05:10;1.50;;;0.53;;
74920;SDS011;63483;47.384;8.860;2024-02-21T09:07:36;1.83;;;0.80;;
74920;SDS011;63483;47.384;8.860;2024-02-21T09:10:01;1.80;;;0.70;;
74920;SDS011;63483;47.384;8.860;2024-02-21T09:12:26;2.53;;;0.87;;
74920;SDS011;63483;47.384;8.860;2024-02-21T09:14:52;2.10;;;1.15;;
74920;SDS011;63483;47.384;8.860;2024-02-21T09:17:17;1.70;;;0.60;;
74920;SDS011;63483;47.384;8.860;2024-02-21T09:19:43;1.23;;;0.50;;
74920;SDS011;63483;47.384;8.860;2024-02-21T09:22:09;2.67;;;0.57;;
74920;SDS011;63483;47.384;8.860;2024-02-21T09:24:34;2.50;;;0.77;;
74920;SDS011;63483;47.384;8.860;2024-02-21T09:26:59;3.30;;;0.80;;
74920;SDS011;63483;47.384;8.860;2024-02-21T09:29:25;1.37;;;0.63;;
74920;SDS011;63483;47.384;8.860;2024-02-21T09:31:51;1.75;;;0.73;;
74920;SDS011;63483;47.384;8.860;2024-02-21T09:34:17;1.27;;;0.30;;
74920;SDS011;63483;47.384;8.860;2024-02-21T09:36:42;0.90;;;0.30;;
74920;SDS011;63483;47.384;8.860;2024-02-21T09:39:08;2.37;;;0.60;;
74920;SDS011;63483;47.384;8.860;2024-02-21T09:41:36;2.28;;;0.50;;
74920;SDS011;63483;47.384;8.860;2024-02-21T09:44:06;1.17;;;0.70;;
74920;SDS011;63483;47.384;8.860;2024-02-21T09:46:40;2.10;;;0.38;;
74920;SDS011;63483;47.384;8.860;2024-02-21T09:49:21;1.45;;;0.50;;
74920;SDS011;63483;47.384;8.860;2024-02-21T09:51:51;1.40;;;0.50;;
74920;SDS011;63483;47.384;8.860;2024-02-21T09:54:18;1.10;;;0.50;;
74920;SDS011;63483;47.384;8.860;2024-02-21T09:56:47;1.10;;;0.63;;
74920;SDS011;63483;47.384;8.860;2024-02-21T09:59:14;1.05;;;0.55;;
74920;SDS011;63483;47.384;8.860;2024-02-21T10:01:42;1.10;;;0.60;;
74920;SDS011;63483;47.384;8.860;2024-02-21T10:04:08;1.48;;;0.43;;
74920;SDS011;63483;47.384;8.860;2024-02-21T10:06:34;0.85;;;0.45;;
74920;SDS011;63483;47.384;8.860;2024-02-21T10:08:59;0.87;;;0.20;;
74920;SDS011;63483;47.384;8.860;2024-02-21T10:11:25;1.67;;;0.60;;
74920;SDS011;63483;47.384;8.860;2024-02-21T10:13:51;1.92;;;0.40;;
74920;SDS011;63483;47.384;8.860;2024-02-21T10:16:16;1.37;;;0.37;;
74920;SDS011;63483;47.384;8.860;2024-02-21T10:18:42;1.70;;;0.47;;
74920;SDS011;63483;47.384;8.860;2024-02-21T10:21:07;1.80;;;0.50;;
74920;SDS011;63483;47.384;8.860;2024-02-21T10:23:49;1.03;;;0.77;;
74920;SDS011;63483;47.384;8.860;2024-02-21T10:26:15;1.05;;;0.38;;
74920;SDS011;63483;47.384;8.860;2024-02-21T10:28:42;1.75;;;0.43;;
74920;SDS011;63483;47.384;8.860;2024-02-21T10:31:10;1.40;;;0.50;;
74920;SDS011;63483;47.384;8.860;2024-02-21T10:33:36;0.95;;;0.45;;
74920;SDS011;63483;47.384;8.860;2024-02-21T10:36:09;1.50;;;0.70;;
74920;SDS011;63483;47.384;8.860;2024-02-21T10:38:38;1.65;;;0.50;;
74920;SDS011;63483;47.384;8.860;2024-02-21T10:41:05;0.90;;;0.30;;
74920;SDS011;63483;47.384;8.860;2024-02-21T10:43:40;0.85;;;0.30;;
74920;SDS011;63483;47.384;8.860;2024-02-21T10:46:09;1.05;;;0.45;;
74920;SDS011;63483;47.384;8.860;2024-02-21T10:48:42;1.23;;;0.53;;
74920;SDS011;63483;47.384;8.860;2024-02-21T10:53:59;1.53;;;0.50;;
74920;SDS011;63483;47.384;8.860;2024-02-21T10:56:33;1.10;;;0.40;;
74920;SDS011;63483;47.384;8.860;2024-02-21T10:59:02;0.80;;;0.30;;
74920;SDS011;63483;47.384;8.860;2024-02-21T11:01:29;0.93;;;0.38;;
74920;SDS011;63483;47.384;8.860;2024-02-21T11:03:58;1.43;;;0.40;;
74920;SDS011;63483;47.384;8.860;2024-02-21T11:06:26;0.80;;;0.47;;
74920;SDS011;63483;47.384;8.860;2024-02-21T11:09:29;1.05;;;0.50;;
74920;SDS011;63483;47.384;8.860;2024-02-21T11:11:54;1.13;;;0.52;;
74920;SDS011;63483;47.384;8.860;2024-02-21T11:14:21;0.93;;;0.40;;
74920;SDS011;63483;47.384;8.860;2024-02-21T11:16:46;2.53;;;0.83;;
74920;SDS011;63483;47.384;8.860;2024-02-21T11:21:43;1.30;;;0.50;;
74920;SDS011;63483;47.384;8.860;2024-02-21T11:24:08;3.30;;;0.60;;
74920;SDS011;63483;47.384;8.860;2024-02-21T11:26:36;0.83;;;0.30;;
74920;SDS011;63483;47.384;8.860;2024-02-21T11:29:02;0.95;;;0.35;;
74920;SDS011;63483;47.384;8.860;2024-02-21T11:31:44;1.00;;;0.50;;
74920;SDS011;63483;47.384;8.860;2024-02-21T11:34:12;1.48;;;0.52;;
74920;SDS011;63483;47.384;8.860;2024-02-21T11:36:50;1.53;;;0.50;;
74920;SDS011;63483;47.384;8.860;2024-02-21T11:39:20;0.90;;;0.40;;
74920;SDS011;63483;47.384;8.860;2024-02-21T11:41:59;2.08;;;0.38;;
74920;SDS011;63483;47.384;8.860;2024-02-21T11:44:34;1.35;;;0.50;;
74920;SDS011;63483;47.384;8.860;2024-02-21T11:47:03;1.00;;;0.50;;
74920;SDS011;63483;47.384;8.860;2024-02-21T11:49:29;1.10;;;0.40;;
74920;SDS011;63483;47.384;8.860;2024-02-21T11:51:58;2.13;;;0.40;;
74920;SDS011;63483;47.384;8.860;2024-02-21T11:54:29;1.55;;;0.43;;
74920;SDS011;63483;47.384;8.860;2024-02-21T11:56:55;1.00;;;0.35;;
74920;SDS011;63483;47.384;8.860;2024-02-21T11:59:20;1.60;;;0.40;;
74920;SDS011;63483;47.384;8.860;2024-02-21T12:01:46;2.20;;;0.50;;
74920;SDS011;63483;47.384;8.860;2024-02-21T12:04:12;1.13;;;0.45;;
74920;SDS011;63483;47.384;8.860;2024-02-21T12:06:38;1.27;;;0.77;;
74920;SDS011;63483;47.384;8.860;2024-02-21T12:09:05;1.05;;;0.43;;
74920;SDS011;63483;47.384;8.860;2024-02-21T12:11:34;0.90;;;0.40;;
74920;SDS011;63483;47.384;8.860;2024-02-21T12:14:02;1.10;;;0.30;;
74920;SDS011;63483;47.384;8.860;2024-02-21T12:16:30;1.20;;;0.50;;
74920;SDS011;63483;47.384;8.860;2024-02-21T12:18:59;1.30;;;0.38;;
74920;SDS011;63483;47.384;8.860;2024-02-21T12:21:34;1.10;;;0.37;;
74920;SDS011;63483;47.384;8.860;2024-02-21T12:26:47;1.90;;;0.63;;
74920;SDS011;63483;47.384;8.860;2024-02-21T12:29:12;1.17;;;0.40;;
74920;SDS011;63483;47.384;8.860;2024-02-21T12:31:38;1.93;;;0.40;;
74920;SDS011;63483;47.384;8.860;2024-02-21T12:34:03;2.22;;;0.50;;
74920;SDS011;63483;47.384;8.860;2024-02-21T12:36:29;1.10;;;0.30;;
74920;SDS011;63483;47.384;8.860;2024-02-21T12:38:58;1.17;;;0.35;;
74920;SDS011;63483;47.384;8.860;2024-02-21T12:41:24;2.10;;;0.35;;
74920;SDS011;63483;47.384;8.860;2024-02-21T12:43:51;1.33;;;0.47;;
74920;SDS011;63483;47.384;8.860;2024-02-21T12:46:17;1.10;;;0.40;;
74920;SDS011;63483;47.384;8.860;2024-02-21T12:48:42;1.50;;;0.60;;
74920;SDS011;63483;47.384;8.860;2024-02-21T12:51:09;1.00;;;0.30;;
74920;SDS011;63483;47.384;8.860;2024-02-21T12:53:35;1.63;;;0.50;;
74920;SDS011;63483;47.384;8.860;2024-02-21T12:56:00;1.40;;;0.63;;
74920;SDS011;63483;47.384;8.860;2024-02-21T12:58:25;1.20;;;0.80;;
74920;SDS011;63483;47.384;8.860;2024-02-21T13:00:50;1.20;;;0.40;;
74920;SDS011;63483;47.384;8.860;2024-02-21T13:03:16;2.73;;;0.70;;
74920;SDS011;63483;47.384;8.860;2024-02-21T13:05:41;1.67;;;0.30;;
74920;SDS011;63483;47.384;8.860;2024-02-21T13:08:06;1.27;;;0.60;;
74920;SDS011;63483;47.384;8.860;2024-02-21T13:10:32;2.93;;;0.50;;
74920;SDS011;63483;47.384;8.860;2024-02-21T13:13:01;1.10;;;0.35;;
74920;SDS011;63483;47.384;8.860;2024-02-21T13:15:27;2.83;;;0.70;;
74920;SDS011;63483;47.384;8.860;2024-02-21T13:17:53;1.48;;;0.68;;
74920;SDS011;63483;47.384;8.860;2024-02-21T13:20:22;1.45;;;0.77;;
74920;SDS011;63483;47.384;8.860;2024-02-21T13:22:48;1.70;;;0.70;;
74920;SDS011;63483;47.384;8.860;2024-02-21T13:25:13;1.13;;;0.70;;
74920;SDS011;63483;47.384;8.860;2024-02-21T13:27:44;2.00;;;0.50;;
74920;SDS011;63483;47.384;8.860;2024-02-21T13:30:10;2.80;;;1.43;;
74920;SDS011;63483;47.384;8.860;2024-02-21T13:32:36;1.47;;;0.77;;
74920;SDS011;63483;47.384;8.860;2024-02-21T13:35:01;1.40;;;0.80;;
74920;SDS011;63483;47.384;8.860;2024-02-21T13:37:28;1.73;;;1.00;;
74920;SDS011;63483;47.384;8.860;2024-02-21T13:39:53;1.40;;;0.75;;
74920;SDS011;63483;47.384;8.860;2024-02-21T13:42:19;2.10;;;0.60;;
74920;SDS011;63483;47.384;8.860;2024-02-21T13:44:45;2.67;;;0.80;;
74920;SDS011;63483;47.384;8.860;2024-02-21T13:47:10;1.60;;;0.77;;
74920;SDS011;63483;47.384;8.860;2024-02-21T13:49:39;1.83;;;0.50;;
74920;SDS011;63483;47.384;8.860;2024-02-21T13:52:04;2.87;;;0.43;;
74920;SDS011;63483;47.384;8.860;2024-02-21T13:54:30;1.50;;;0.80;;
74920;SDS011;63483;47.384;8.860;2024-02-21T13:56:55;1.60;;;1.10;;
74920;SDS011;63483;47.384;8.860;2024-02-21T13:59:20;1.40;;;0.70;;
74920;SDS011;63483;47.384;8.860;2024-02-21T14:01:45;1.57;;;0.90;;
74920;SDS011;63483;47.384;8.860;2024-02-21T14:04:11;2.30;;;0.70;;
74920;SDS011;63483;47.384;8.860;2024-02-21T14:06:37;1.65;;;0.60;;
74920;SDS011;63483;47.384;8.860;2024-02-21T14:09:07;1.58;;;0.30;;
74920;SDS011;63483;47.384;8.860;2024-02-21T14:11:33;1.50;;;0.40;;
74920;SDS011;63483;47.384;8.860;2024-02-21T14:13:58;1.00;;;0.40;;
74920;SDS011;63483;47.384;8.860;2024-02-21T14:16:24;2.13;;;0.70;;
74920;SDS011;63483;47.384;8.860;2024-02-21T14:18:49;1.58;;;0.57;;
74920;SDS011;63483;47.384;8.860;2024-02-21T14:21:14;2.77;;;0.63;;
74920;SDS011;63483;47.384;8.860;2024-02-21T14:23:40;1.20;;;0.60;;
74920;SDS011;63483;47.384;8.860;2024-02-21T14:26:05;1.30;;;0.40;;
74920;SDS011;63483;47.384;8.860;2024-02-21T14:28:31;2.88;;;0.43;;
74920;SDS011;63483;47.384;8.860;2024-02-21T14:30:58;1.90;;;0.68;;
74920;SDS011;63483;47.384;8.860;2024-02-21T14:33:25;1.30;;;0.80;;
74920;SDS011;63483;47.384;8.860;2024-02-21T14:35:54;3.28;;;0.68;;
74920;SDS011;63483;47.384;8.860;2024-02-21T14:38:19;1.20;;;0.47;;
74920;SDS011;63483;47.384;8.860;2024-02-21T14:40:44;1.20;;;0.50;;
74920;SDS011;63483;47.384;8.860;2024-02-21T14:43:10;1.40;;;0.60;;
74920;SDS011;63483;47.384;8.860;2024-02-21T14:45:35;2.33;;;0.70;;
74920;SDS011;63483;47.384;8.860;2024-02-21T14:48:01;1.80;;;0.50;;
74920;SDS011;63483;47.384;8.860;2024-02-21T14:50:27;1.30;;;0.80;;